Time;durP1;ratioP1;P1;durP2;ratioP2;P2;SDS_P1;SDS_P2;PMS_P1;PMS_P2;Temp;Humidity;BMP_temperature;BMP_pressure;BME280_temperature;BME280_humidity;BME280_pressure;Samples;Min_cycle;Max_cycle;Signal;HPM_P1;HPM_P2
2024/03/23 00:00:17;;;;;;;3.97;3.00;;;19.30;59.30;;;;;;5056628;28;20444;-49
2024/03/23 00:02:43;;;;;;;2.65;2.40;;;19.40;59.40;;;;;;5058525;28;20048;-50
2024/03/23 00:05:10;;;;;;;3.17;2.42;;;19.40;59.40;;;;;;5053894;28;20044;-57
2024/03/23 00:07:36;;;;;;;3.00;2.75;;;19.40;59.40;;;;;;5054706;28;21849;-54
2024/03/23 00:10:04;;;;;;;2.55;2.22;;;19.40;59.40;;;;;;5058451;28;20452;-48
2024/03/23 00:12:30;;;;;;;2.65;2.33;;;19.30;59.30;;;;;;5059609;28;20033;-53
2024/03/23 00:14:57;;;;;;;2.70;2.15;;;19.40;59.40;;;;;;5056634;28;20036;-49
2024/03/23 00:17:23;;;;;;;2.33;2.10;;;19.30;59.30;;;;;;5052741;28;20519;-54
2024/03/23 00:19:50;;;;;;;3.20;2.30;;;19.40;59.40;;;;;;5055049;28;20514;-59
2024/03/23 00:22:16;;;;;;;2.55;2.20;;;19.40;59.40;;;;;;5054385;28;20029;-58
2024/03/23 00:24:43;;;;;;;2.85;2.10;;;19.40;59.40;;;;;;5055529;28;20051;-56
2024/03/23 00:27:09;;;;;;;3.08;2.42;;;19.30;59.30;;;;;;5057840;28;20040;-49
2024/03/23 00:29:36;;;;;;;2.45;2.08;;;19.40;59.40;;;;;;5057279;28;21831;-48
2024/03/23 00:32:02;;;;;;;2.78;2.13;;;19.40;59.40;;;;;;5054658;28;20813;-52
2024/03/23 00:34:29;;;;;;;2.72;2.03;;;19.30;59.40;;;;;;5052711;28;20021;-58
2024/03/23 00:36:55;;;;;;;2.55;2.17;;;19.40;59.40;;;;;;5055171;28;20029;-53
2024/03/23 00:39:22;;;;;;;3.15;2.30;;;19.40;59.40;;;;;;5056260;28;20021;-54
2024/03/23 00:41:48;;;;;;;2.33;2.13;;;19.40;59.40;;;;;;5051828;28;20033;-50
2024/03/23 00:44:15;;;;;;;2.50;1.92;;;19.30;59.40;;;;;;5055575;28;20047;-50
2024/03/23 00:46:41;;;;;;;3.42;2.28;;;19.40;59.40;;;;;;5053440;28;20750;-60
2024/03/23 00:49:08;;;;;;;2.55;1.73;;;19.40;59.40;;;;;;5056429;28;20444;-54
2024/03/23 00:51:34;;;;;;;2.53;1.98;;;19.40;59.40;;;;;;5053335;28;20021;-49
2024/03/23 00:54:00;;;;;;;2.58;1.88;;;19.30;59.40;;;;;;5056171;28;20043;-52
2024/03/23 00:56:25;;;;;;;3.30;2.47;;;19.40;59.40;;;;;;5053893;28;20025;-52
2024/03/23 00:58:51;;;;;;;3.08;2.30;;;19.40;59.40;;;;;;5054293;28;20021;-52
2024/03/23 01:01:16;;;;;;;2.53;2.15;;;19.40;59.40;;;;;;5058929;28;20039;-49
2024/03/23 01:03:41;;;;;;;2.42;1.80;;;19.30;59.40;;;;;;5053415;28;20086;-49
2024/03/23 01:06:07;;;;;;;3.15;2.00;;;19.30;59.30;;;;;;5052930;28;20063;-50
2024/03/23 01:08:32;;;;;;;3.90;2.28;;;19.40;59.50;;;;;;5054953;28;20029;-59
2024/03/23 01:11:00;;;;;;;2.22;2.00;;;19.40;59.50;;;;;;5050480;28;20032;-49
2024/03/23 01:13:25;;;;;;;2.63;2.10;;;19.30;59.40;;;;;;5057216;28;20507;-51
2024/03/23 01:15:52;;;;;;;4.35;2.53;;;19.30;59.40;;;;;;5052944;28;20090;-56
2024/03/23 01:18:18;;;;;;;2.22;2.03;;;19.40;59.50;;;;;;5051591;28;20021;-51
2024/03/23 01:20:43;;;;;;;3.08;1.80;;;19.40;59.50;;;;;;5057437;28;20922;-53
2024/03/23 01:23:09;;;;;;;2.40;1.92;;;19.30;59.50;;;;;;5059423;28;20071;-58
2024/03/23 01:25:35;;;;;;;2.30;2.10;;;19.30;59.40;;;;;;5056134;28;20042;-49
2024/03/23 01:28:00;;;;;;;3.05;1.80;;;19.30;60.00;;;;;;5057581;28;20028;-49
2024/03/23 01:30:25;;;;;;;2.83;1.88;;;19.30;59.40;;;;;;5055863;28;20074;-54
2024/03/23 01:32:51;;;;;;;2.25;2.03;;;19.30;59.50;;;;;;5051740;28;20052;-58
2024/03/23 01:35:16;;;;;;;1.60;1.48;;;19.30;59.60;;;;;;5055502;28;20028;-49
2024/03/23 01:37:42;;;;;;;2.28;1.88;;;19.30;59.60;;;;;;5059037;28;20599;-51
2024/03/23 01:40:08;;;;;;;2.58;1.83;;;19.20;59.60;;;;;;5053209;28;20036;-58
2024/03/23 01:42:33;;;;;;;2.25;1.75;;;19.30;59.70;;;;;;5051429;28;20029;-59
2024/03/23 01:44:59;;;;;;;3.38;2.03;;;19.20;59.70;;;;;;5062221;28;21274;-49
2024/03/23 01:47:24;;;;;;;2.28;1.83;;;19.20;59.80;;;;;;5057789;28;20032;-49
2024/03/23 01:49:51;;;;;;;2.50;1.55;;;19.20;59.80;;;;;;5052129;28;20082;-57
2024/03/23 01:52:17;;;;;;;2.38;1.80;;;19.20;59.90;;;;;;5052844;28;20021;-50
2024/03/23 01:54:43;;;;;;;1.80;1.50;;;19.20;59.90;;;;;;5053747;28;20032;-52
2024/03/23 01:57:09;;;;;;;2.05;1.55;;;19.20;59.90;;;;;;5052504;28;20029;-57
2024/03/23 01:59:34;;;;;;;2.30;2.00;;;19.20;60.00;;;;;;5048942;28;20452;-52
2024/03/23 02:02:01;;;;;;;3.50;2.25;;;19.20;59.90;;;;;;5052978;28;20036;-49
2024/03/23 02:04:26;;;;;;;2.83;2.05;;;19.20;59.90;;;;;;5055656;28;20025;-57
2024/03/23 02:06:52;;;;;;;1.67;1.58;;;19.20;59.90;;;;;;5052496;28;20054;-56
2024/03/23 02:09:17;;;;;;;2.67;1.80;;;19.20;59.90;;;;;;5056084;28;20371;-49
2024/03/23 02:11:42;;;;;;;2.88;2.40;;;19.20;59.90;;;;;;5050351;28;20029;-53
2024/03/23 02:14:08;;;;;;;1.95;1.85;;;19.20;59.90;;;;;;5051250;28;20386;-53
2024/03/23 02:16:33;;;;;;;3.53;2.10;;;19.20;59.80;;;;;;5053824;28;20112;-58
2024/03/23 02:18:59;;;;;;;1.83;1.73;;;19.20;59.80;;;;;;5053871;28;20846;-50
2024/03/23 02:21:25;;;;;;;2.10;1.90;;;19.20;59.80;;;;;;5057628;28;20047;-52
2024/03/23 02:23:50;;;;;;;1.83;1.50;;;19.20;59.80;;;;;;5048077;28;20037;-53
2024/03/23 02:26:16;;;;;;;2.65;1.33;;;19.20;59.70;;;;;;5054113;28;20128;-58
2024/03/23 02:28:42;;;;;;;2.30;2.00;;;19.20;59.80;;;;;;5049853;28;20032;-49
2024/03/23 02:31:07;;;;;;;1.92;1.50;;;19.20;59.70;;;;;;5053904;28;20036;-51
2024/03/23 02:33:34;;;;;;;1.92;1.48;;;19.20;59.70;;;;;;5051014;28;20024;-56
2024/03/23 02:36:00;;;;;;;2.85;1.90;;;19.20;59.70;;;;;;5052925;28;20036;-49
2024/03/23 02:38:25;;;;;;;1.67;1.45;;;19.20;59.70;;;;;;5054442;28;20524;-55
2024/03/23 02:40:51;;;;;;;1.55;1.45;;;19.20;59.70;;;;;;5049465;28;20024;-52
2024/03/23 02:43:16;;;;;;;2.00;1.80;;;19.20;59.70;;;;;;5054993;28;20032;-55
2024/03/23 02:45:42;;;;;;;2.03;1.70;;;19.20;59.70;;;;;;5055219;28;20037;-54
2024/03/23 02:48:07;;;;;;;2.00;1.58;;;19.20;59.70;;;;;;5052187;28;20418;-56
2024/03/23 02:50:33;;;;;;;2.83;1.77;;;19.30;59.70;;;;;;5054964;28;20505;-56
2024/03/23 02:52:59;;;;;;;1.60;1.45;;;19.20;59.70;;;;;;5040499;28;20037;-49
2024/03/23 02:55:24;;;;;;;1.75;1.50;;;19.20;59.70;;;;;;5052503;28;20094;-49
2024/03/23 02:57:49;;;;;;;2.00;1.80;;;19.20;59.70;;;;;;5047499;28;20028;-58
2024/03/23 03:00:16;;;;;;;2.03;1.77;;;19.20;59.70;;;;;;5052306;28;20113;-54
2024/03/23 03:02:41;;;;;;;1.77;1.63;;;19.20;59.70;;;;;;5049545;28;20486;-54
2024/03/23 03:05:08;;;;;;;1.75;1.65;;;19.30;59.80;;;;;;5054437;28;20098;-54
2024/03/23 03:07:34;;;;;;;2.05;1.52;;;19.20;59.60;;;;;;5048406;28;20073;-57
2024/03/23 03:09:59;;;;;;;3.00;1.52;;;19.20;59.60;;;;;;5053110;28;20032;-55
2024/03/23 03:12:25;;;;;;;1.60;1.50;;;19.20;59.60;;;;;;5044436;28;20035;-49
2024/03/23 03:14:50;;;;;;;2.05;1.83;;;19.20;59.70;;;;;;5049104;28;20035;-54
2024/03/23 03:17:16;;;;;;;1.73;1.55;;;19.20;59.70;;;;;;5049919;28;20485;-53
2024/03/23 03:19:41;;;;;;;1.50;1.40;;;19.20;59.70;;;;;;5052600;28;20040;-52
2024/03/23 03:22:06;;;;;;;1.80;1.38;;;19.20;59.70;;;;;;5046551;28;20660;-52
2024/03/23 03:24:32;;;;;;;1.77;1.38;;;19.20;59.70;;;;;;5049422;28;20036;-53
2024/03/23 03:26:58;;;;;;;1.50;1.40;;;19.20;59.70;;;;;;5050908;28;20033;-51
2024/03/23 03:29:23;;;;;;;1.95;1.50;;;19.20;59.70;;;;;;5059119;28;20525;-51
2024/03/23 03:31:49;;;;;;;1.73;1.63;;;19.20;59.70;;;;;;5050368;28;20054;-53
2024/03/23 03:34:15;;;;;;;1.90;1.45;;;19.20;59.70;;;;;;5054763;28;20021;-51
2024/03/23 03:36:41;;;;;;;1.95;1.50;;;19.20;59.70;;;;;;5058837;28;20500;-54
2024/03/23 03:39:07;;;;;;;1.63;1.42;;;19.20;59.80;;;;;;5058682;28;20134;-51
2024/03/23 03:41:32;;;;;;;2.03;1.73;;;19.20;59.80;;;;;;5055047;28;20013;-53
2024/03/23 03:44:01;;;;;;;1.60;1.50;;;19.20;59.80;;;;;;5051071;28;21751;-54
2024/03/23 03:46:27;;;;;;;1.90;1.70;;;19.20;59.80;;;;;;5055269;28;20033;-55
2024/03/23 03:48:54;;;;;;;1.88;1.73;;;19.10;59.80;;;;;;5057571;28;20047;-52
2024/03/23 03:51:20;;;;;;;1.60;1.50;;;19.20;59.80;;;;;;5059796;28;20039;-53
2024/03/23 03:53:46;;;;;;;1.65;1.55;;;19.10;59.80;;;;;;5055292;28;20045;-55
2024/03/23 03:56:11;;;;;;;1.42;1.30;;;19.10;59.80;;;;;;5061005;28;20418;-56
2024/03/23 03:58:37;;;;;;;1.92;1.60;;;19.20;59.90;;;;;;5057133;28;20044;-53
2024/03/23 04:01:02;;;;;;;1.67;1.55;;;19.20;59.90;;;;;;5050587;28;20490;-55
2024/03/23 04:03:28;;;;;;;1.40;1.30;;;19.10;59.90;;;;;;5053003;28;20029;-54
2024/03/23 04:05:54;;;;;;;1.73;1.42;;;19.10;59.90;;;;;;5048975;28;20040;-56
2024/03/23 04:08:20;;;;;;;1.90;1.80;;;19.10;59.90;;;;;;5051351;28;20031;-55
2024/03/23 04:10:46;;;;;;;1.88;1.50;;;19.10;59.90;;;;;;5046970;28;20116;-56
2024/03/23 04:13:12;;;;;;;1.83;1.70;;;19.10;59.90;;;;;;5051547;28;20032;-50
2024/03/23 04:15:38;;;;;;;1.77;1.60;;;19.10;59.90;;;;;;5058180;28;20093;-57
2024/03/23 04:18:04;;;;;;;1.52;1.40;;;19.10;59.90;;;;;;5053925;28;20040;-51
2024/03/23 04:20:29;;;;;;;1.70;1.50;;;19.10;59.90;;;;;;5058487;28;20032;-59
2024/03/23 04:22:55;;;;;;;2.17;1.73;;;19.10;59.90;;;;;;5063974;28;20108;-51
2024/03/23 04:25:20;;;;;;;1.83;1.63;;;19.10;59.90;;;;;;5060160;28;20032;-55
2024/03/23 04:27:46;;;;;;;1.92;1.73;;;19.10;60.00;;;;;;5059433;28;20043;-55
2024/03/23 04:30:12;;;;;;;2.08;1.88;;;19.10;60.00;;;;;;5056463;28;20467;-54
2024/03/23 04:32:37;;;;;;;1.80;1.63;;;19.10;59.90;;;;;;5058551;28;20489;-52
2024/03/23 04:35:09;;;;;;;2.30;1.95;;;19.10;60.00;;;;;;5056383;28;20060;-57
2024/03/23 04:37:40;;;;;;;1.70;1.50;;;19.10;59.90;;;;;;5061006;28;20057;-56
2024/03/23 04:40:07;;;;;;;2.10;1.70;;;19.10;60.00;;;;;;5058014;28;20086;-52
2024/03/23 04:42:32;;;;;;;2.05;1.85;;;19.10;59.90;;;;;;5060215;28;20025;-56
2024/03/23 04:44:58;;;;;;;2.40;1.88;;;19.10;59.90;;;;;;5060051;28;20475;-49
2024/03/23 04:47:23;;;;;;;1.60;1.50;;;19.10;59.90;;;;;;5056672;28;20028;-56
2024/03/23 04:49:49;;;;;;;1.63;1.42;;;19.10;59.90;;;;;;5058994;28;20031;-55
2024/03/23 04:52:15;;;;;;;1.63;1.52;;;19.10;59.90;;;;;;5060190;28;20032;-51
2024/03/23 04:54:41;;;;;;;1.80;1.50;;;19.00;60.50;;;;;;5057474;28;20033;-55
2024/03/23 04:57:07;;;;;;;1.98;1.77;;;19.10;59.90;;;;;;5052260;28;20043;-49
2024/03/23 04:59:33;;;;;;;1.52;1.38;;;19.10;59.90;;;;;;5060329;28;20021;-54
2024/03/23 05:01:58;;;;;;;1.75;1.65;;;19.00;59.90;;;;;;5053210;28;20560;-51
2024/03/23 05:04:24;;;;;;;1.55;1.45;;;19.10;59.90;;;;;;5058358;28;20115;-57
2024/03/23 05:06:49;;;;;;;1.52;1.42;;;19.10;59.90;;;;;;5053780;28;20039;-52
2024/03/23 05:09:15;;;;;;;1.55;1.42;;;19.10;59.90;;;;;;5057411;28;20039;-50
2024/03/23 05:11:44;;;;;;;2.05;1.70;;;19.10;59.90;;;;;;5058752;28;20040;-54
2024/03/23 05:14:09;;;;;;;2.08;1.85;;;19.10;59.90;;;;;;5056521;28;20033;-56
2024/03/23 05:16:35;;;;;;;1.92;1.73;;;19.10;59.90;;;;;;5059805;28;20028;-51
2024/03/23 05:19:00;;;;;;;1.85;1.73;;;19.10;59.90;;;;;;5056306;28;20568;-54
2024/03/23 05:21:26;;;;;;;1.92;1.70;;;19.10;59.90;;;;;;5057049;28;20028;-51
2024/03/23 05:23:53;;;;;;;2.28;1.63;;;19.10;59.90;;;;;;5056548;28;20110;-54
2024/03/23 05:26:19;;;;;;;3.22;2.25;;;19.10;59.80;;;;;;5053353;28;20556;-52
2024/03/23 05:28:44;;;;;;;2.22;1.90;;;19.10;59.90;;;;;;5057308;28;20032;-55
2024/03/23 05:31:10;;;;;;;2.42;1.55;;;19.10;59.90;;;;;;5055175;28;20086;-56
2024/03/23 05:33:38;;;;;;;2.17;1.98;;;19.10;59.80;;;;;;5058578;28;20024;-52
2024/03/23 05:36:04;;;;;;;1.73;1.63;;;19.10;59.80;;;;;;5053125;28;20043;-50
2024/03/23 05:38:29;;;;;;;1.98;1.77;;;19.10;59.80;;;;;;5059264;28;20029;-50
2024/03/23 05:40:59;;;;;;;1.63;1.52;;;19.10;59.80;;;;;;5057228;28;20452;-55
2024/03/23 05:43:25;;;;;;;2.10;1.90;;;19.10;59.80;;;;;;5057715;28;20033;-53
2024/03/23 05:45:54;;;;;;;1.98;1.77;;;19.10;59.70;;;;;;5054150;28;20119;-59
2024/03/23 05:48:20;;;;;;;1.92;1.80;;;19.10;59.80;;;;;;5053271;28;20033;-50
2024/03/23 05:50:45;;;;;;;1.98;1.77;;;19.10;59.70;;;;;;5056240;28;20058;-50
2024/03/23 05:53:12;;;;;;;1.75;1.65;;;19.10;59.70;;;;;;5057927;28;20064;-55
2024/03/23 05:55:38;;;;;;;1.75;1.65;;;19.10;59.70;;;;;;5054272;28;20470;-51
2024/03/23 05:58:04;;;;;;;1.75;1.58;;;19.10;59.70;;;;;;5055885;28;20039;-51
2024/03/23 06:00:29;;;;;;;1.88;1.67;;;19.10;59.70;;;;;;5059209;28;20052;-55
2024/03/23 06:02:54;;;;;;;1.80;1.70;;;19.10;59.80;;;;;;5052379;28;20029;-55
2024/03/23 06:05:20;;;;;;;2.53;1.65;;;19.10;59.80;;;;;;5054898;28;20063;-50
2024/03/23 06:07:45;;;;;;;2.30;2.05;;;19.10;59.70;;;;;;5053208;28;20025;-54
2024/03/23 06:10:11;;;;;;;1.40;1.30;;;19.10;59.80;;;;;;5053714;28;20037;-55
2024/03/23 06:12:36;;;;;;;1.70;1.60;;;19.10;59.70;;;;;;5054356;28;20132;-50
2024/03/23 06:15:02;;;;;;;1.90;1.77;;;19.10;59.70;;;;;;5055447;28;20041;-51
2024/03/23 06:17:28;;;;;;;1.85;1.20;;;19.10;59.70;;;;;;5055436;28;20509;-57
2024/03/23 06:19:54;;;;;;;1.58;1.48;;;19.10;59.70;;;;;;5056781;28;20397;-56
2024/03/23 06:22:19;;;;;;;1.63;1.52;;;19.10;59.70;;;;;;5052722;28;20037;-56
2024/03/23 06:24:45;;;;;;;1.92;1.83;;;19.10;59.70;;;;;;5057136;28;20032;-54
2024/03/23 06:27:10;;;;;;;2.53;1.63;;;19.10;59.70;;;;;;5053521;28;20025;-51
2024/03/23 06:29:36;;;;;;;1.65;1.55;;;19.10;59.70;;;;;;5054081;28;20021;-57
2024/03/23 06:32:02;;;;;;;1.70;1.60;;;19.10;59.70;;;;;;5051226;28;20414;-55
2024/03/23 06:34:28;;;;;;;1.63;1.52;;;19.10;59.70;;;;;;5054188;28;20340;-55
2024/03/23 06:36:54;;;;;;;1.70;1.60;;;19.10;59.70;;;;;;5050622;28;20489;-53
2024/03/23 06:39:20;;;;;;;1.80;1.70;;;19.10;59.70;;;;;;5055628;28;20139;-54
2024/03/23 06:41:52;;;;;;;1.70;1.60;;;19.10;59.70;;;;;;5056993;28;20112;-51
2024/03/23 06:44:18;;;;;;;1.52;1.42;;;19.10;59.70;;;;;;5057240;28;20024;-55
2024/03/23 06:46:44;;;;;;;1.73;1.30;;;19.10;59.70;;;;;;5051592;28;20124;-57
2024/03/23 06:49:10;;;;;;;1.73;1.63;;;19.10;59.70;;;;;;5053791;28;20123;-56
2024/03/23 06:51:35;;;;;;;1.35;1.25;;;19.10;59.70;;;;;;5055251;28;20037;-52
2024/03/23 06:54:03;;;;;;;1.70;1.52;;;19.10;59.70;;;;;;5054393;28;20024;-51
2024/03/23 06:56:29;;;;;;;2.03;1.80;;;19.20;59.70;;;;;;5056485;28;20115;-55
2024/03/23 06:58:54;;;;;;;1.75;1.65;;;19.20;59.70;;;;;;5052569;28;20179;-55
2024/03/23 07:01:20;;;;;;;1.63;1.33;;;19.10;59.60;;;;;;5056183;28;20669;-50
2024/03/23 07:03:45;;;;;;;1.77;1.50;;;19.20;59.70;;;;;;5055298;28;20031;-50
2024/03/23 07:06:10;;;;;;;1.70;1.60;;;19.10;59.60;;;;;;5051076;28;20033;-56
2024/03/23 07:08:36;;;;;;;1.50;1.40;;;19.10;59.60;;;;;;5052184;28;21457;-50
2024/03/23 07:11:02;;;;;;;2.80;1.40;;;19.20;59.60;;;;;;5053986;28;20461;-54
2024/03/23 07:13:28;;;;;;;1.63;1.52;;;19.20;59.70;;;;;;5056676;28;20099;-50
2024/03/23 07:15:55;;;;;;;2.42;1.60;;;19.20;59.60;;;;;;5049832;28;20064;-50
2024/03/23 07:18:21;;;;;;;1.70;1.55;;;19.20;59.60;;;;;;5053036;28;20033;-60
2024/03/23 07:20:56;;;;;;;1.50;1.40;;;19.20;59.60;;;;;;5053177;28;20081;-53
2024/03/23 07:23:23;;;;;;;1.70;1.33;;;19.20;59.60;;;;;;5056777;28;20037;-53
2024/03/23 07:26:02;;;;;;;1.80;1.70;;;19.10;59.50;;;;;;5047298;28;20039;-52
2024/03/23 07:28:31;;;;;;;2.22;1.30;;;19.10;59.50;;;;;;5055145;28;20063;-53
2024/03/23 07:31:10;;;;;;;1.60;1.50;;;19.10;59.50;;;;;;5057714;28;20037;-55
2024/03/23 07:33:41;;;;;;;1.90;1.80;;;19.10;59.50;;;;;;5055387;28;20051;-50
2024/03/23 07:36:06;;;;;;;1.90;1.67;;;19.20;59.60;;;;;;5054721;28;20666;-50
2024/03/23 07:38:32;;;;;;;5.85;1.75;;;19.20;59.60;;;;;;5058718;28;20028;-52
2024/03/23 07:41:04;;;;;;;1.67;1.55;;;19.20;59.70;;;;;;5055423;28;20745;-58
2024/03/23 07:43:30;;;;;;;2.33;1.17;;;19.20;59.60;;;;;;5039807;28;20109;-52
2024/03/23 07:45:55;;;;;;;1.85;1.60;;;19.20;59.70;;;;;;5053279;28;20136;-53
2024/03/23 07:48:24;;;;;;;2.08;1.50;;;19.20;59.60;;;;;;5054426;28;20535;-53
2024/03/23 07:51:04;;;;;;;1.40;1.30;;;19.20;59.50;;;;;;5060453;28;20486;-52
2024/03/23 07:53:31;;;;;;;1.90;1.52;;;19.20;59.60;;;;;;5057474;28;20035;-50
2024/03/23 07:56:04;;;;;;;3.30;1.33;;;19.20;59.50;;;;;;5056885;28;20059;-51
2024/03/23 07:58:29;;;;;;;1.33;1.23;;;19.20;59.60;;;;;;5059291;28;20032;-50
2024/03/23 08:00:56;;;;;;;2.95;1.35;;;19.20;59.60;;;;;;5056848;28;20070;-50
2024/03/23 08:03:21;;;;;;;1.40;1.30;;;19.20;59.50;;;;;;5056823;28;20029;-51
2024/03/23 08:05:47;;;;;;;1.85;1.42;;;19.20;59.50;;;;;;5057553;28;20039;-50
2024/03/23 08:08:13;;;;;;;1.75;1.40;;;19.20;59.50;;;;;;5052694;28;20474;-50
2024/03/23 08:10:51;;;;;;;2.97;1.45;;;19.20;59.50;;;;;;5057779;28;20021;-54
2024/03/23 08:13:17;;;;;;;2.55;1.60;;;19.20;59.50;;;;;;5055706;28;20444;-50
2024/03/23 08:15:43;;;;;;;1.88;1.75;;;19.20;59.50;;;;;;5057651;28;20028;-51
2024/03/23 08:18:10;;;;;;;3.70;1.48;;;19.20;59.50;;;;;;5054324;28;20029;-58
2024/03/23 08:20:35;;;;;;;1.98;1.42;;;19.20;59.60;;;;;;5057366;28;20028;-51
2024/03/23 08:23:00;;;;;;;1.50;1.40;;;19.20;59.60;;;;;;5058535;28;20119;-53
2024/03/23 08:25:26;;;;;;;2.85;1.50;;;19.20;59.60;;;;;;5055697;28;20502;-50
2024/03/23 08:27:52;;;;;;;4.07;1.80;;;19.20;59.60;;;;;;5058881;28;20024;-51
2024/03/23 08:30:18;;;;;;;1.70;1.35;;;19.20;59.70;;;;;;5058660;28;20123;-50
2024/03/23 08:32:44;;;;;;;3.28;1.80;;;19.20;59.70;;;;;;5057352;28;20024;-53
2024/03/23 08:35:09;;;;;;;1.52;1.33;;;19.20;59.70;;;;;;5052226;28;20050;-52
2024/03/23 08:37:35;;;;;;;3.28;1.80;;;19.20;59.70;;;;;;5056536;28;20028;-57
2024/03/23 08:40:00;;;;;;;3.45;1.70;;;19.20;59.70;;;;;;5055082;28;20036;-54
2024/03/23 08:42:26;;;;;;;3.25;1.73;;;19.20;59.70;;;;;;5055061;28;20058;-54
2024/03/23 08:44:51;;;;;;;2.08;1.65;;;19.10;59.80;;;;;;5054799;28;20029;-53
2024/03/23 08:47:17;;;;;;;1.85;1.42;;;19.10;59.80;;;;;;5056724;28;21979;-54
2024/03/23 08:49:44;;;;;;;2.85;1.75;;;19.10;59.80;;;;;;5056114;28;20025;-54
2024/03/23 08:52:09;;;;;;;2.15;1.80;;;19.10;59.90;;;;;;5053849;28;20048;-57
2024/03/23 08:54:34;;;;;;;1.67;1.58;;;19.10;59.90;;;;;;5060183;28;20016;-51
2024/03/23 08:57:00;;;;;;;1.55;1.40;;;19.00;60.00;;;;;;5056438;28;20039;-50
2024/03/23 08:59:26;;;;;;;3.33;1.58;;;19.00;60.00;;;;;;5056673;28;20033;-54
2024/03/23 09:01:52;;;;;;;1.77;1.63;;;19.00;60.10;;;;;;5056710;28;20035;-58
2024/03/23 09:04:17;;;;;;;3.00;1.60;;;19.00;60.10;;;;;;5058585;28;20074;-59
2024/03/23 09:06:43;;;;;;;1.80;1.70;;;19.00;60.20;;;;;;5055922;28;20036;-50
2024/03/23 09:09:08;;;;;;;2.10;1.80;;;19.00;60.30;;;;;;5048111;28;20440;-55
2024/03/23 09:11:34;;;;;;;2.63;1.85;;;19.00;60.30;;;;;;5049065;28;20071;-52
2024/03/23 09:13:59;;;;;;;2.95;2.17;;;19.00;60.30;;;;;;5046502;28;20401;-58
2024/03/23 09:16:25;;;;;;;1.70;1.50;;;19.00;60.20;;;;;;5047715;28;20032;-54
2024/03/23 09:18:51;;;;;;;2.20;1.85;;;19.00;60.20;;;;;;5049409;28;20029;-52
2024/03/23 09:21:17;;;;;;;2.72;1.90;;;19.00;60.20;;;;;;5050312;28;20121;-55
2024/03/23 09:23:46;;;;;;;2.33;1.65;;;19.00;60.20;;;;;;5051307;28;20119;-55
2024/03/23 09:26:12;;;;;;;3.35;1.88;;;19.00;60.10;;;;;;5045945;28;20620;-56
2024/03/23 09:28:37;;;;;;;2.35;1.90;;;19.00;60.10;;;;;;5026528;28;20040;-54
2024/03/23 09:31:07;;;;;;;2.08;1.75;;;19.00;60.00;;;;;;5012096;28;20062;-54
2024/03/23 09:33:34;;;;;;;2.63;1.90;;;19.00;60.00;;;;;;5042454;28;20037;-53
2024/03/23 09:36:04;;;;;;;2.40;2.00;;;19.00;60.00;;;;;;5045779;28;20048;-55
2024/03/23 09:38:29;;;;;;;2.42;1.98;;;19.00;60.00;;;;;;5051670;28;20040;-54
2024/03/23 09:40:57;;;;;;;1.90;1.77;;;19.00;59.90;;;;;;5046107;28;20821;-55
2024/03/23 09:43:22;;;;;;;4.22;2.67;;;19.00;59.90;;;;;;5048501;28;20033;-54
2024/03/23 09:45:49;;;;;;;2.90;2.55;;;19.00;59.90;;;;;;5041339;28;20103;-54
2024/03/23 09:48:15;;;;;;;3.28;2.03;;;19.00;59.90;;;;;;5045781;28;20105;-52
2024/03/23 09:50:43;;;;;;;4.07;2.67;;;19.00;60.00;;;;;;5043305;28;20501;-54
2024/03/23 09:53:11;;;;;;;4.82;2.92;;;19.00;60.00;;;;;;5049685;28;20040;-52
2024/03/23 09:55:36;;;;;;;4.00;3.10;;;19.00;60.00;;;;;;5052072;28;20102;-53
2024/03/23 09:58:02;;;;;;;5.65;4.18;;;19.00;60.10;;;;;;5042205;28;20044;-55
2024/03/23 10:00:28;;;;;;;6.00;3.50;;;19.00;60.00;;;;;;5051317;28;20465;-61
2024/03/23 10:03:01;;;;;;;5.13;3.83;;;19.00;60.10;;;;;;5047445;28;20067;-55
2024/03/23 10:05:27;;;;;;;7.15;4.43;;;19.00;60.10;;;;;;5049826;28;20040;-59
2024/03/23 10:07:53;;;;;;;5.63;4.50;;;19.00;60.20;;;;;;5046139;28;20595;-57
2024/03/23 10:10:19;;;;;;;8.35;4.70;;;19.00;60.20;;;;;;5047015;28;20068;-51
2024/03/23 10:12:51;;;;;;;9.95;5.90;;;19.00;60.20;;;;;;5048608;28;20025;-49
2024/03/23 10:15:22;;;;;;;11.32;5.22;;;19.00;60.20;;;;;;5047789;28;20048;-59
2024/03/23 10:17:47;;;;;;;12.90;5.75;;;19.00;60.30;;;;;;5043154;28;20072;-56
2024/03/23 10:20:18;;;;;;;7.07;5.00;;;19.00;60.30;;;;;;5047611;28;20056;-56
2024/03/23 10:22:44;;;;;;;9.23;5.15;;;18.90;60.30;;;;;;5050783;28;20039;-53
2024/03/23 10:25:11;;;;;;;11.30;5.53;;;18.90;60.30;;;;;;5049120;28;20033;-57
2024/03/23 10:27:36;;;;;;;9.25;5.82;;;18.90;60.40;;;;;;5043327;28;20056;-55
2024/03/23 10:30:12;;;;;;;9.02;5.70;;;18.90;60.40;;;;;;5048017;28;20137;-54
2024/03/23 10:32:38;;;;;;;38.55;15.63;;;18.90;60.70;;;;;;5041979;28;20090;-52
2024/03/23 10:35:22;;;;;;;44.63;18.58;;;19.10;64.50;;;;;;5047126;28;20041;-52
2024/03/23 10:37:51;;;;;;;36.15;15.80;;;19.20;63.70;;;;;;5048110;28;20029;-51
2024/03/23 10:40:18;;;;;;;36.60;14.30;;;19.30;63.40;;;;;;5058412;22;20044;-54
2024/03/23 10:42:44;;;;;;;30.30;12.93;;;19.30;62.80;;;;;;5052349;28;20028;-54
2024/03/23 10:45:10;;;;;;;33.20;12.57;;;19.30;62.40;;;;;;5055090;28;20062;-53
2024/03/23 10:47:36;;;;;;;27.35;12.80;;;19.40;62.20;;;;;;5056943;28;20084;-56
2024/03/23 10:50:05;;;;;;;27.52;11.90;;;19.40;62.20;;;;;;5045321;28;20111;-56
2024/03/23 10:52:30;;;;;;;24.50;9.82;;;19.40;62.40;;;;;;5053077;28;20029;-53
2024/03/23 10:54:58;;;;;;;18.52;8.18;;;19.30;62.10;;;;;;5048878;28;20048;-54
2024/03/23 10:57:31;;;;;;;23.95;8.73;;;19.40;62.20;;;;;;5052183;28;20035;-53
2024/03/23 10:59:57;;;;;;;20.67;7.80;;;19.30;62.20;;;;;;5046379;28;20075;-55
2024/03/23 11:02:23;;;;;;;16.77;7.32;;;19.30;62.10;;;;;;5032880;28;20104;-52
2024/03/23 11:04:48;;;;;;;17.23;8.05;;;19.30;62.90;;;;;;5043614;28;20111;-50
2024/03/23 11:07:26;;;;;;;23.00;8.40;;;19.40;64.70;;;;;;5052389;28;20112;-54
2024/03/23 11:09:55;;;;;;;18.30;8.25;;;19.50;67.20;;;;;;5045581;28;20493;-49
2024/03/23 11:12:23;;;;;;;20.00;7.57;;;19.60;66.90;;;;;;5046731;28;20035;-55
2024/03/23 11:15:10;;;;;;;19.63;8.20;;;19.60;65.50;;;;;;5043339;28;20040;-52
2024/03/23 11:17:36;;;;;;;15.48;7.10;;;19.60;64.80;;;;;;5047732;28;20636;-54
2024/03/23 11:20:05;;;;;;;20.25;6.97;;;19.60;64.50;;;;;;5035301;28;20089;-61
2024/03/23 11:22:50;;;;;;;17.60;7.10;;;19.50;62.70;;;;;;5043778;28;20024;-56
2024/03/23 11:25:26;;;;;;;13.35;6.95;;;19.50;62.90;;;;;;5045537;28;20500;-57
2024/03/23 11:28:11;;;;;;;18.35;7.30;;;19.50;63.50;;;;;;5048204;28;20490;-55
2024/03/23 11:30:38;;;;;;;14.13;6.37;;;19.50;64.60;;;;;;5027398;28;20035;-56
2024/03/23 11:33:04;;;;;;;15.40;6.55;;;19.40;65.10;;;;;;5042041;28;20040;-57
2024/03/23 11:35:40;;;;;;;16.38;6.38;;;19.40;64.80;;;;;;5050501;28;20445;-58
2024/03/23 11:38:09;;;;;;;13.63;6.32;;;19.40;64.30;;;;;;5043664;28;20037;-54
2024/03/23 11:40:36;;;;;;;15.23;6.57;;;19.40;63.80;;;;;;5049224;28;20036;-52
2024/03/23 11:43:04;;;;;;;12.80;5.95;;;19.40;63.70;;;;;;5048532;28;20094;-55
2024/03/23 11:45:37;;;;;;;14.65;6.53;;;19.30;63.40;;;;;;5047111;28;20044;-56
2024/03/23 11:48:07;;;;;;;14.52;6.57;;;19.40;63.40;;;;;;5025251;28;20083;-55
2024/03/23 11:50:34;;;;;;;13.35;5.68;;;19.40;63.20;;;;;;5052960;28;20025;-61
2024/03/23 11:53:13;;;;;;;13.98;5.95;;;19.40;63.30;;;;;;5048891;28;20032;-56
2024/03/23 11:55:42;;;;;;;13.57;4.80;;;19.40;63.10;;;;;;5001687;28;20025;-55
2024/03/23 11:58:08;;;;;;;10.13;4.97;;;19.30;62.90;;;;;;5005111;28;20035;-54
2024/03/23 12:00:34;;;;;;;15.35;5.90;;;19.40;62.90;;;;;;5029346;28;20036;-53
2024/03/23 12:03:01;;;;;;;12.95;4.97;;;19.40;62.80;;;;;;5052094;28;20051;-57
2024/03/23 12:05:27;;;;;;;12.07;5.28;;;19.40;62.70;;;;;;5049101;28;20048;-53
2024/03/23 12:07:52;;;;;;;11.45;4.95;;;19.40;62.50;;;;;;5050967;28;20586;-52
2024/03/23 12:10:19;;;;;;;10.10;4.68;;;19.30;62.50;;;;;;5056155;28;20059;-55
2024/03/23 12:12:45;;;;;;;9.27;4.25;;;19.30;62.40;;;;;;5046855;28;20795;-55
2024/03/23 12:15:12;;;;;;;12.45;4.93;;;19.30;62.20;;;;;;5047297;28;20059;-56
2024/03/23 12:17:38;;;;;;;9.10;4.80;;;19.30;62.10;;;;;;5057259;28;20189;-56
2024/03/23 12:20:04;;;;;;;12.57;4.75;;;19.30;62.10;;;;;;5050226;28;20111;-53
2024/03/23 12:22:30;;;;;;;11.43;4.55;;;19.30;62.00;;;;;;5048878;28;20037;-60
2024/03/23 12:24:56;;;;;;;106.50;50.97;;;19.30;62.00;;;;;;5057629;28;20039;-56
2024/03/23 12:27:23;;;;;;;105.85;50.85;;;19.30;64.50;;;;;;5048690;28;20029;-57
2024/03/23 12:29:48;;;;;;;94.45;48.25;;;19.40;63.40;;;;;;5050576;28;20033;-55
2024/03/23 12:32:14;;;;;;;89.85;44.97;;;19.30;63.10;;;;;;5051942;28;20039;-55
2024/03/23 12:34:41;;;;;;;85.38;42.72;;;19.30;62.90;;;;;;5053415;28;20033;-55
2024/03/23 12:37:06;;;;;;;90.70;43.75;;;19.20;62.70;;;;;;5051211;28;20401;-60
2024/03/23 12:39:32;;;;;;;90.85;41.78;;;19.30;62.70;;;;;;5051373;28;20033;-52
2024/03/23 12:41:57;;;;;;;87.63;42.03;;;19.30;62.60;;;;;;5046541;28;20099;-56